Elizabeth City, NC

6:29 PM EDT on May 27, 2017 (GMT -0400)
Forest Park II | | Change Station
Active Advisory: Severe Thunderstorm Watch

Elev 46 ft 36.30 °N, 76.27 °W | Updated 2 seconds ago

Clear
Clear
85.3 °F
Feels Like 83 °F
N
0.0
Wind Variable Wind from SSW
Gusts 0.0 mph

Today
High -- | Low -- °F
--% Chance of Precip.
Yesterday
High -- | Low -- °F
Precip. -- in
Pressure 29.86 in
Visibility 10.0 miles
Clouds Clear
Heat Index 83 °F
Dew Point 46 °F
Humidity 25%
Rainfall 0.00 in
Snow Depth Not available.
5:50 AM 8:13 PM
Waxing Crescent, 7% visible
METAR KECG 272054Z 19008KT 10SM CLR 30/19 A2985 RMK AO2 SLP109 T03000189 57013
Pressure 29.86 in
Visibility 10.0 miles
Clouds Clear
Heat Index 83 °F
Dew Point 46 °F
Humidity 25%
Rainfall 0.00 in
Snow Depth Not available.
5:50 AM 8:13 PM
Waxing Crescent, 7% visible
METAR KECG 272054Z 19008KT 10SM CLR 30/19 A2985 RMK AO2 SLP109 T03000189 57013

Get Your Daily Forecast Email!

Thanks for signing up!

Be on the lookout for a verification email in your inbox.

You'll start receiving severe weather alerts in your inbox..

×

10-Day Weather Forecast

Almanac

Astronomy

May. 27, 2017 Rise Set
Actual Time
Civil Twilight
Nautical Twilight
Astronomical Twilight
Moon
Length of Visible Light
Length of Day
Tomorrow will be .
, % of the Moon is Illuminated

Today's Extremes

State Highs State Lows

Community

WunderPhotos

Category 6

Welcome to Category 6. This is the collective home for Weather Underground's featured writeups by Dr. Jeff Masters (right), Bob Henson (left), Chris Burt, and other regular contributors.

Nearby

Air Quality

  Air Quality AQ Index Pollutant
Not available.

Snow Depth

Station Depth Elevation

Earthquake Activity

City Distance Mag. Time & Date
Minimum magnitude displayed is 2.5.

Coastal Water Temperatures

Place Temperature

Stations

Nearby Weather Stations

Station Location Temp. Windchill Dew Point Humidity Wind Precip. Elev Updated Type
                   

Watches & Warnings

Severe Thunderstorm Watch
Issued: 6:24 PM EDT May. 27, 2017 – National Weather Service

Severe Thunderstorm Watch 278 remains in effect until 1000 PM EDT
for the following locations


NC
. North Carolina counties included are

Bertie Camden Chowan
Currituck Edgecombe Franklin
gates Granville Halifax
Hertford Nash Northampton
Pasquotank Perquimans person
Vance Warren